McElhattan, Pennsylvania
Current Conditions -  °F | °C
As of 8:54 PM on Friday 19 Dec 2014 (Local Time) from KIPT Reporting Station
Overcast Overcast  
Wind Chill: -4°   Ceiling: 4300
Heat Index:   Visibility: 10mi
Dew Point: -7°   Wind: 9mph
Humidity: 56%   Direction: 300°WNW
Pressure: 30.21"   Gusts: NA
Location:  41.16°N, 77.36°W
Report Text: KIPT 200154Z 30008KT 10SM FEW036 OVC043 01/M07 A3021 RMK AO2 SLP234 T00061072
Loading
Personal Weather Stations






























Interactive Weather Map New forecast layout! Learn more

10-Day Weather Forecast

Advertisements
Track Severe Weather on mobile